createdAt,value
2016-10-05T00:00:11.853Z,9.32
2016-10-05T00:01:11.804Z,9.31
2016-10-05T00:02:11.462Z,9.28
2016-10-05T00:03:11.734Z,9.33
2016-10-05T00:04:11.690Z,9.32
2016-10-05T00:05:11.350Z,9.28
2016-10-05T00:06:11.614Z,9.31
2016-10-05T00:07:11.275Z,9.28
2016-10-05T00:08:11.241Z,9.31
2016-10-05T00:09:11.508Z,9.29
2016-10-05T00:10:11.163Z,9.33
2016-10-05T00:11:11.131Z,9.26
2016-10-05T00:12:11.392Z,9.26
2016-10-05T00:13:11.354Z,9.29
2016-10-05T00:14:11.020Z,9.2
2016-10-05T00:15:11.278Z,9.2
2016-10-05T00:16:11.239Z,9.23
2016-10-05T00:17:11.203Z,9.11
2016-10-05T00:18:11.165Z,9.13
2016-10-05T00:19:11.133Z,9.11
2016-10-05T00:20:11.095Z,9.14
2016-10-05T00:21:11.053Z,9.14
2016-10-05T00:22:11.009Z,9.15
2016-10-05T00:23:10.977Z,9.01
2016-10-05T00:24:10.942Z,9.04
2016-10-05T00:25:10.601Z,9.05
2016-10-05T00:26:10.564Z,9.17
2016-10-05T00:27:10.821Z,9.13
2016-10-05T00:28:10.788Z,8.99
2016-10-05T00:29:10.754Z,9.01
2016-10-05T00:30:10.716Z,9.08
2016-10-05T00:31:10.071Z,8.95
2016-10-05T00:32:10.642Z,8.96
2016-10-05T00:33:10.301Z,8.98
2016-10-05T00:34:10.264Z,8.96
2016-10-05T00:35:10.525Z,9.04
2016-10-05T00:36:10.187Z,8.99
2016-10-05T00:37:09.847Z,9.08
2016-10-05T00:38:10.414Z,8.98
2016-10-05T00:39:10.379Z,9.05
2016-10-05T00:40:10.036Z,8.95
2016-10-05T00:41:10.313Z,8.91
2016-10-05T00:42:09.962Z,9.02
2016-10-05T00:43:10.227Z,8.98
2016-10-05T00:44:10.192Z,8.92
2016-10-05T00:45:09.850Z,9.01
2016-10-05T00:46:10.114Z,8.96
2016-10-05T00:47:10.077Z,8.99
2016-10-05T00:48:10.040Z,8.95
2016-10-05T00:49:09.695Z,9.04
2016-10-05T00:50:09.964Z,8.94
2016-10-05T00:51:09.925Z,9.01
2016-10-05T00:52:09.585Z,8.96
2016-10-05T00:53:09.549Z,8.96
2016-10-05T00:54:09.818Z,8.94
2016-10-05T00:55:09.774Z,8.86
2016-10-05T00:56:09.741Z,8.96
2016-10-05T00:57:09.401Z,8.91
2016-10-05T00:58:09.361Z,8.92
2016-10-05T00:59:09.324Z,8.92
2016-10-05T01:00:09.583Z,8.83
2016-10-05T01:01:09.554Z,8.95
2016-10-05T01:02:09.513Z,8.94
2016-10-05T01:03:09.476Z,8.92
2016-10-05T01:04:09.435Z,8.87
2016-10-05T01:05:09.100Z,8.81
2016-10-05T01:06:09.060Z,8.74
2016-10-05T01:07:09.324Z,8.83
2016-10-05T01:08:08.988Z,8.71
2016-10-05T01:09:09.263Z,8.74
2016-10-05T01:10:09.212Z,8.76
2016-10-05T01:11:08.875Z,8.77
2016-10-05T01:12:09.138Z,8.8
2016-10-05T01:13:09.096Z,8.74
2016-10-05T01:14:09.061Z,8.79
2016-10-05T01:15:08.722Z,8.71
2016-10-05T01:16:08.987Z,8.76
2016-10-05T01:17:08.949Z,8.76
2016-10-05T01:18:08.905Z,8.86
2016-10-05T01:19:08.871Z,8.74
2016-10-05T01:20:08.532Z,8.73
2016-10-05T01:21:08.797Z,8.76
2016-10-05T01:22:08.457Z,8.73
2016-10-05T01:23:08.716Z,8.7
2016-10-05T01:24:08.377Z,8.73
2016-10-05T01:25:08.344Z,8.71
2016-10-05T01:26:08.609Z,8.73
2016-10-05T01:27:08.268Z,8.73
2016-10-05T01:28:08.545Z,8.71
2016-10-05T01:29:08.193Z,8.71
2016-10-05T01:30:08.457Z,8.79
2016-10-05T01:31:08.418Z,8.68
2016-10-05T01:32:08.382Z,8.7
2016-10-05T01:33:08.344Z,8.55
2016-10-05T01:34:08.306Z,8.63
2016-10-05T01:35:08.274Z,8.59
2016-10-05T01:36:08.229Z,8.62
2016-10-05T01:37:08.199Z,8.59
2016-10-05T01:38:07.852Z,8.63
2016-10-05T01:39:08.121Z,8.58
2016-10-05T01:40:08.077Z,8.5
2016-10-05T01:41:07.743Z,8.53
2016-10-05T01:42:08.004Z,8.44
2016-10-05T01:43:07.662Z,8.45
2016-10-05T01:44:07.625Z,8.41
2016-10-05T01:45:07.587Z,8.41
2016-10-05T01:46:07.852Z,8.36
2016-10-05T01:47:07.510Z,8.55
2016-10-05T01:48:07.777Z,8.44
2016-10-05T01:49:07.433Z,8.41
2016-10-05T01:50:07.700Z,8.44
2016-10-05T01:51:07.359Z,8.36
2016-10-05T01:52:07.622Z,8.38
2016-10-05T01:53:07.590Z,8.29
2016-10-05T01:54:07.549Z,8.36
2016-10-05T01:55:07.515Z,8.3
2016-10-05T01:56:07.171Z,8.34
2016-10-05T01:57:07.434Z,8.34
2016-10-05T01:58:07.401Z,8.38
2016-10-05T01:59:07.360Z,8.33
2016-10-05T02:00:07.016Z,8.36
2016-10-05T02:01:06.981Z,8.28
2016-10-05T02:02:06.641Z,8.37
2016-10-05T02:03:07.209Z,8.38
2016-10-05T02:04:07.168Z,8.34
2016-10-05T02:05:06.829Z,8.36
2016-10-05T02:06:07.095Z,8.34
2016-10-05T02:07:07.063Z,8.38
2016-10-05T02:08:07.018Z,8.33
2016-10-05T02:09:06.679Z,8.2
2016-10-05T02:10:06.941Z,8.33
2016-10-05T02:11:06.909Z,8.25
2016-10-05T02:12:06.567Z,8.34
2016-10-05T02:13:06.829Z,8.18
2016-10-05T02:14:06.799Z,8.19
2016-10-05T02:15:06.457Z,8.19
2016-10-05T02:16:06.717Z,8.19
2016-10-05T02:17:06.694Z,8.18
2016-10-05T02:18:06.643Z,8.22
2016-10-05T02:19:06.602Z,8.19
2016-10-05T02:20:06.568Z,8.19
2016-10-05T02:21:06.535Z,8.22
2016-10-05T02:22:06.186Z,8.25
2016-10-05T02:23:06.453Z,8.16
2016-10-05T02:24:05.812Z,8.2
2016-10-05T02:25:06.370Z,8.23
2016-10-05T02:26:06.034Z,8.2
2016-10-05T02:27:06.000Z,8.23
2016-10-05T02:28:05.957Z,8.2
2016-10-05T02:29:06.222Z,8.23
2016-10-05T02:30:06.985Z,8.19
2016-10-05T02:31:06.310Z,8.19
2016-10-05T02:32:05.808Z,8.16
2016-10-05T02:33:05.783Z,8.16
2016-10-05T02:34:06.036Z,8.16
2016-10-05T02:35:05.694Z,8.07
2016-10-05T02:36:05.656Z,8.15
2016-10-05T02:37:05.622Z,8.15
2016-10-05T02:38:05.575Z,8.16
2016-10-05T02:39:05.842Z,8.16
2016-10-05T02:40:05.808Z,8.16
2016-10-05T02:41:05.465Z,8.18
2016-10-05T02:42:05.428Z,8.2
2016-10-05T02:43:05.687Z,8.2
2016-10-05T02:44:05.655Z,8.2
2016-10-05T02:45:05.625Z,8.15
2016-10-05T02:46:05.576Z,8.18
2016-10-05T02:47:05.542Z,8.15
2016-10-05T02:48:05.501Z,8.18
2016-10-05T02:49:05.462Z,8.19
2016-10-05T02:50:05.421Z,8.02
2016-10-05T02:51:05.086Z,8.07
2016-10-05T02:52:05.349Z,8.2
2016-10-05T02:53:05.308Z,8.05
2016-10-05T02:54:05.269Z,8.07
2016-10-05T02:55:04.932Z,8.05
2016-10-05T02:56:05.204Z,8.08
2016-10-05T02:57:04.859Z,8.08
2016-10-05T02:58:05.116Z,8.07
2016-10-05T02:59:04.778Z,8.1
2016-10-05T03:00:04.747Z,8.12
2016-10-05T03:01:05.023Z,8.04
2016-10-05T03:02:04.965Z,8.01
2016-10-05T03:03:04.935Z,8.1
2016-10-05T03:04:04.891Z,8
2016-10-05T03:05:04.856Z,8.05
2016-10-05T03:06:04.816Z,7.98
2016-10-05T03:07:04.775Z,8.02
2016-10-05T03:08:04.737Z,8.01
2016-10-05T03:09:04.697Z,8.02
2016-10-05T03:10:04.358Z,7.92
2016-10-05T03:11:04.627Z,7.92
2016-10-05T03:12:04.282Z,7.95
2016-10-05T03:13:04.548Z,7.9
2016-10-05T03:14:04.206Z,7.86
2016-10-05T03:15:04.472Z,7.87
2016-10-05T03:16:04.440Z,7.9
2016-10-05T03:17:04.400Z,7.86
2016-10-05T03:18:04.103Z,7.87
2016-10-05T03:19:04.014Z,7.83
2016-10-05T03:20:04.284Z,7.9
2016-10-05T03:21:03.938Z,7.82
2016-10-05T03:22:04.204Z,7.85
2016-10-05T03:23:03.867Z,7.87
2016-10-05T03:24:04.127Z,7.87
2016-10-05T03:25:04.096Z,7.79
2016-10-05T03:26:04.053Z,7.8
2016-10-05T03:27:04.012Z,7.83
2016-10-05T03:28:03.987Z,7.87
2016-10-05T03:29:03.632Z,7.79
2016-10-05T03:30:03.595Z,7.82
2016-10-05T03:31:03.558Z,7.71
2016-10-05T03:32:03.817Z,7.69
2016-10-05T03:33:03.789Z,7.68
2016-10-05T03:34:03.747Z,7.61
2016-10-05T03:35:03.710Z,7.63
2016-10-05T03:36:03.367Z,7.68
2016-10-05T03:37:03.629Z,7.58
2016-10-05T03:38:03.593Z,7.64
2016-10-05T03:39:03.556Z,7.63
2016-10-05T03:40:03.217Z,7.67
2016-10-05T03:41:03.178Z,7.61
2016-10-05T03:42:03.435Z,7.68
2016-10-05T03:43:03.399Z,7.67
2016-10-05T03:44:03.357Z,7.61
2016-10-05T03:45:03.019Z,7.72
2016-10-05T03:46:02.984Z,7.63
2016-10-05T03:47:03.261Z,7.55
2016-10-05T03:48:03.210Z,7.64
2016-10-05T03:49:03.171Z,7.52
2016-10-05T03:50:03.131Z,7.67
2016-10-05T03:51:03.094Z,7.55
2016-10-05T03:52:02.750Z,7.53
2016-10-05T03:53:03.013Z,7.67
2016-10-05T03:54:02.687Z,7.61
2016-10-05T03:55:02.634Z,7.61
2016-10-05T03:56:02.900Z,7.63
2016-10-05T03:57:02.863Z,7.61
2016-10-05T03:58:02.821Z,7.63
2016-10-05T03:59:02.484Z,7.5
2016-10-05T04:00:02.747Z,7.53
2016-10-05T04:01:02.709Z,7.49
2016-10-05T04:02:02.369Z,7.57
2016-10-05T04:03:02.632Z,7.6
2016-10-05T04:04:02.594Z,7.55
2016-10-05T04:05:02.254Z,7.52
2016-10-05T04:06:02.223Z,7.52
2016-10-05T04:07:02.474Z,7.45
2016-10-05T04:08:02.440Z,7.48
2016-10-05T04:09:02.401Z,7.48
2016-10-05T04:10:02.061Z,7.5
2016-10-05T04:11:02.020Z,7.48
2016-10-05T04:12:01.977Z,7.46
2016-10-05T04:13:02.248Z,7.43
2016-10-05T04:14:02.209Z,7.5
2016-10-05T04:15:01.868Z,7.52
2016-10-05T04:16:01.832Z,7.46
2016-10-05T04:17:01.785Z,7.5
2016-10-05T04:18:01.452Z,7.42
2016-10-05T04:19:01.713Z,7.48
2016-10-05T04:20:01.975Z,7.4
2016-10-05T04:21:01.940Z,7.42
2016-10-05T04:22:01.907Z,7.37
2016-10-05T04:23:01.860Z,7.3
2016-10-05T04:24:01.521Z,7.31
2016-10-05T04:25:01.787Z,7.32
2016-10-05T04:26:01.448Z,7.39
2016-10-05T04:27:01.407Z,7.31
2016-10-05T04:28:01.669Z,7.39
2016-10-05T04:29:01.346Z,7.3
2016-10-05T04:30:01.593Z,7.27
2016-10-05T04:31:01.268Z,7.32
2016-10-05T04:32:01.512Z,7.35
2016-10-05T04:33:01.475Z,7.28
2016-10-05T04:34:01.441Z,7.23
2016-10-05T04:35:01.097Z,7.21
2016-10-05T04:36:01.364Z,7.23
2016-10-05T04:37:01.328Z,7.23
2016-10-05T04:38:01.280Z,7.15
2016-10-05T04:39:01.247Z,7.2
2016-10-05T04:40:00.901Z,7.24
2016-10-05T04:41:01.175Z,7.21
2016-10-05T04:42:01.130Z,7.12
2016-10-05T04:43:00.489Z,7.13
2016-10-05T04:44:01.059Z,7.1
2016-10-05T04:45:00.705Z,7.12
2016-10-05T04:46:00.669Z,7.12
2016-10-05T04:47:00.939Z,7.03
2016-10-05T04:48:00.895Z,7.09
2016-10-05T04:49:00.879Z,7.16
2016-10-05T04:50:00.826Z,7.05
2016-10-05T04:51:00.786Z,7.09
2016-10-05T04:52:00.442Z,7.1
2016-10-05T04:53:00.702Z,7.02
2016-10-05T04:54:00.365Z,6.95
2016-10-05T04:55:00.630Z,6.99
2016-10-05T04:56:00.586Z,6.97
2016-10-05T04:57:00.252Z,6.99
2016-10-05T04:58:00.513Z,6.97
2016-10-05T04:59:00.187Z,7.1
2016-10-05T05:00:00.433Z,7.03
2016-10-05T05:01:00.394Z,7.05
2016-10-05T05:02:00.353Z,7.03
2016-10-05T05:03:00.015Z,6.98
2016-10-05T05:04:00.284Z,6.97
2016-10-05T05:04:59.936Z,7.05
2016-10-05T05:06:00.203Z,7.09
2016-10-05T05:07:00.160Z,7.02
2016-10-05T05:08:00.130Z,7.12
2016-10-05T05:09:00.080Z,7.02
2016-10-05T05:10:00.046Z,6.99
2016-10-05T05:10:59.710Z,7.02
2016-10-05T05:11:59.968Z,6.88
2016-10-05T05:12:59.624Z,6.89
2016-10-05T05:13:59.586Z,6.88
2016-10-05T05:14:59.870Z,6.76
2016-10-05T05:15:59.810Z,6.88
2016-10-05T05:16:59.771Z,6.88
2016-10-05T05:17:59.741Z,6.8
2016-10-05T05:18:59.397Z,6.77
2016-10-05T05:19:59.655Z,6.84
2016-10-05T05:20:59.620Z,6.84
2016-10-05T05:21:59.583Z,6.73
2016-10-05T05:22:59.238Z,6.8
2016-10-05T05:23:59.199Z,6.71
2016-10-05T05:24:59.466Z,6.73
2016-10-05T05:25:59.425Z,6.71
2016-10-05T05:26:59.386Z,6.67
2016-10-05T05:27:59.045Z,6.73
2016-10-05T05:28:59.308Z,6.7
2016-10-05T05:29:59.270Z,6.7
2016-10-05T05:30:58.932Z,6.71
2016-10-05T05:31:59.207Z,6.74
2016-10-05T05:32:59.152Z,6.74
2016-10-05T05:33:59.114Z,6.74
2016-10-05T05:34:58.771Z,6.77
2016-10-05T05:35:59.040Z,6.73
2016-10-05T05:36:58.694Z,6.74
2016-10-05T05:37:58.657Z,6.74
2016-10-05T05:38:58.922Z,6.81
2016-10-05T05:39:58.878Z,6.84
2016-10-05T05:40:58.543Z,6.99
2016-10-05T05:41:58.500Z,7.12
2016-10-05T05:42:58.469Z,7.32
2016-10-05T05:43:58.729Z,7.55
2016-10-05T05:44:58.685Z,7.85
2016-10-05T05:45:58.656Z,8.05
2016-10-05T05:46:58.615Z,8.26
2016-10-05T05:47:58.575Z,8.41
2016-10-05T05:48:58.235Z,8.7
2016-10-05T05:49:58.189Z,8.95
2016-10-05T05:50:58.457Z,9.08
2016-10-05T05:51:58.420Z,9.39
2016-10-05T05:52:58.083Z,9.65
2016-10-05T05:53:58.344Z,9.87
2016-10-05T05:54:58.007Z,10.14
2016-10-05T05:55:57.968Z,10.36
2016-10-05T05:56:58.226Z,10.45
2016-10-05T05:57:58.189Z,10.56
2016-10-05T05:58:57.852Z,10.86
2016-10-05T05:59:57.511Z,10.96
2016-10-05T06:00:58.091Z,11.22
2016-10-05T06:01:58.049Z,11.55
2016-10-05T06:02:57.724Z,11.69
2016-10-05T06:03:57.671Z,11.86
2016-10-05T06:04:57.931Z,11.98
2016-10-05T06:05:57.900Z,12.16
2016-10-05T06:06:57.560Z,12.34
2016-10-05T06:07:57.822Z,12.59
2016-10-05T06:08:57.787Z,12.68
2016-10-05T06:09:57.766Z,13.04
2016-10-05T06:10:57.413Z,13.14
2016-10-05T06:11:57.678Z,13.57
2016-10-05T06:12:57.641Z,13.73
2016-10-05T06:13:57.302Z,13.82
2016-10-05T06:14:57.574Z,13.85
2016-10-05T06:15:56.926Z,14.09
2016-10-05T06:16:57.500Z,14.32
2016-10-05T06:17:57.462Z,14.52
2016-10-05T06:18:56.829Z,14.45
2016-10-05T06:19:57.392Z,14.84
2016-10-05T06:20:57.056Z,15.13
2016-10-05T06:21:57.019Z,15.62
2016-10-05T06:22:57.295Z,15.64
2016-10-05T06:23:56.951Z,15.64
2016-10-05T06:24:56.920Z,15.56
2016-10-05T06:25:57.187Z,15.47
2016-10-05T06:26:57.151Z,15.6
2016-10-05T06:27:57.114Z,15.5
2016-10-05T06:28:57.080Z,15.38
2016-10-05T06:29:56.746Z,15.19
2016-10-05T06:30:56.713Z,15.13
2016-10-05T06:31:56.978Z,14.98
2016-10-05T06:32:56.343Z,14.68
2016-10-05T06:33:56.913Z,14.7
2016-10-05T06:34:56.879Z,15.13
2016-10-05T06:35:56.871Z,15.39
2016-10-05T06:36:56.813Z,15.74
2016-10-05T06:37:56.477Z,16.15
2016-10-05T06:38:56.753Z,16.11
2016-10-05T06:39:56.723Z,15.97
2016-10-05T06:40:56.686Z,16.23
2016-10-05T06:41:56.653Z,16.52
2016-10-05T06:42:56.624Z,16.68
2016-10-05T06:43:56.296Z,16.96
2016-10-05T06:44:56.563Z,17.36
2016-10-05T06:45:56.532Z,17.74
2016-10-05T06:46:56.492Z,18.1
2016-10-05T06:47:56.459Z,18.07
2016-10-05T06:48:56.131Z,18.41
2016-10-05T06:49:56.399Z,18.92
2016-10-05T06:50:56.368Z,19.37
2016-10-05T06:51:55.735Z,19.62
2016-10-05T06:52:56.306Z,19.43
2016-10-05T06:53:56.279Z,19.73
2016-10-05T06:54:55.938Z,19.56
2016-10-05T06:55:55.914Z,19.61
2016-10-05T06:56:56.181Z,19.65
2016-10-05T06:57:56.150Z,19.66
2016-10-05T06:58:55.826Z,20.02
2016-10-05T07:03:50.889Z,21.92
2016-10-05T07:04:50.857Z,22.03
2016-10-05T07:05:50.520Z,22.2
2016-10-05T07:06:50.824Z,22.45
2016-10-05T07:07:50.769Z,22.61
2016-10-05T07:08:50.440Z,22.83
2016-10-05T07:09:50.708Z,22.55
2016-10-05T07:10:50.676Z,22.31
2016-10-05T07:11:50.359Z,22.37
2016-10-05T07:12:50.625Z,22.22
2016-10-05T07:13:50.302Z,21.82
2016-10-05T07:14:50.568Z,21.94
2016-10-05T07:15:50.232Z,22.14
2016-10-05T07:16:50.511Z,22.25
2016-10-05T07:17:50.179Z,22.43
2016-10-05T07:18:50.456Z,22.86
2016-10-05T07:19:50.428Z,22.98
2016-10-05T07:20:50.394Z,22.7
2016-10-05T07:21:50.066Z,22.47
2016-10-05T07:22:50.049Z,22.2
2016-10-05T07:23:50.009Z,22.17
2016-10-05T07:24:49.983Z,22.09
2016-10-05T07:25:50.261Z,22.02
2016-10-05T07:26:49.929Z,21.86
2016-10-05T07:27:49.898Z,21.99
2016-10-05T07:28:50.171Z,22.42
2016-10-05T07:29:50.143Z,22.88
2016-10-05T07:30:49.514Z,23.2
2016-10-05T07:31:49.792Z,23.23
2016-10-05T07:32:49.761Z,23.25
2016-10-05T07:33:50.038Z,23.35
2016-10-05T07:34:49.404Z,23.4
2016-10-05T07:35:49.981Z,23.47
2016-10-05T07:36:49.956Z,23.76
2016-10-05T07:37:49.622Z,23.31
2016-10-05T07:38:49.594Z,22.97
2016-10-05T07:39:49.573Z,23.07
2016-10-05T07:40:49.849Z,23.27
2016-10-05T07:41:49.817Z,23.43
2016-10-05T07:42:49.488Z,23.63
2016-10-05T07:43:49.462Z,23.72
2016-10-05T07:44:49.436Z,23.54
2016-10-05T07:45:49.712Z,23.51
2016-10-05T07:46:49.383Z,23.75
2016-10-05T07:47:49.656Z,23.76
2016-10-05T07:48:49.628Z,23.4
2016-10-05T07:49:49.604Z,23.13
2016-10-05T07:50:49.574Z,23.13
2016-10-05T07:51:49.247Z,23.36
2016-10-05T07:52:49.523Z,23.39
2016-10-05T07:53:49.497Z,23.72
2016-10-05T07:54:49.469Z,23.85
2016-10-05T07:55:49.444Z,23.97
2016-10-05T07:56:49.417Z,24.3
2016-10-05T07:57:49.088Z,24.35
2016-10-05T07:58:49.366Z,24.21
2016-10-05T07:59:49.029Z,24.16
2016-10-05T08:00:49.306Z,24.2
2016-10-05T08:01:49.284Z,23.94
2016-10-05T08:02:49.248Z,24.02
2016-10-05T08:03:49.220Z,23.7
2016-10-05T08:04:48.589Z,23.72
2016-10-05T08:05:48.869Z,23.98
2016-10-05T08:06:49.141Z,24.12
2016-10-05T08:07:48.812Z,23.87
2016-10-05T08:08:49.090Z,23.5
2016-10-05T08:09:48.760Z,23.47
2016-10-05T08:10:49.034Z,23.48
2016-10-05T08:11:48.705Z,23.12
2016-10-05T08:12:48.981Z,22.77
2016-10-05T08:13:48.656Z,22.72
2016-10-05T08:14:48.930Z,22.7
2016-10-05T08:15:48.904Z,22.83
2016-10-05T08:16:48.572Z,22.73
2016-10-05T08:17:48.846Z,22.6
2016-10-05T08:18:48.516Z,22.7
2016-10-05T08:19:48.510Z,23.02
2016-10-05T08:20:48.767Z,23.57
2016-10-05T08:21:48.744Z,24.06
2016-10-05T08:22:48.715Z,24.53
2016-10-05T08:23:48.388Z,24.98
2016-10-05T08:24:48.357Z,24.99
2016-10-05T08:25:48.632Z,24.45
2016-10-05T08:26:48.606Z,24.32
2016-10-05T08:27:48.282Z,24.32
2016-10-05T08:28:48.559Z,24.06
2016-10-05T08:29:48.533Z,23.76
2016-10-05T08:30:48.202Z,23.68
2016-10-05T08:31:48.177Z,23.85
2016-10-05T08:32:48.451Z,24.06
2016-10-05T08:33:48.426Z,23.8
2016-10-05T08:34:48.099Z,23.94
2016-10-05T08:35:48.073Z,24.32
2016-10-05T08:36:48.044Z,24.99
2016-10-05T08:37:48.029Z,25.28
2016-10-05T08:38:48.300Z,24.76
2016-10-05T08:39:47.969Z,24.08
2016-10-05T08:40:47.943Z,23.63
2016-10-05T08:41:47.916Z,23.32
2016-10-05T08:42:48.193Z,23.09
2016-10-05T08:43:48.169Z,23.01
2016-10-05T08:44:47.835Z,23.1
2016-10-05T08:45:48.122Z,23.35
2016-10-05T08:46:47.785Z,23.83
2016-10-05T08:47:47.762Z,23.7
2016-10-05T08:48:47.738Z,23.65
2016-10-05T08:49:48.009Z,23.47
2016-10-05T08:50:47.985Z,23.43
2016-10-05T08:51:47.658Z,23.17
2016-10-05T08:52:47.934Z,23
2016-10-05T08:53:47.914Z,22.77
2016-10-05T08:54:47.883Z,22.88
2016-10-05T08:55:47.263Z,23.19
2016-10-05T08:56:47.828Z,23.28
2016-10-05T08:57:47.501Z,23.2
2016-10-05T08:58:47.475Z,23.46
2016-10-05T08:59:47.753Z,23.5
2016-10-05T09:00:47.729Z,23.07
2016-10-05T09:01:47.698Z,22.85
2016-10-05T09:02:47.676Z,22.35
2016-10-05T09:03:47.648Z,22.2
2016-10-05T09:04:47.018Z,22.24
2016-10-05T09:05:47.596Z,22.57
2016-10-05T09:06:47.577Z,22.88
2016-10-05T09:07:47.568Z,22.7
2016-10-05T09:08:47.214Z,22.47
2016-10-05T09:09:47.496Z,22.58
2016-10-05T09:10:46.859Z,23.1
2016-10-05T09:11:47.141Z,23.4
2016-10-05T09:12:47.411Z,23.79
2016-10-05T09:13:47.391Z,24.06
2016-10-05T09:14:47.064Z,24.39
2016-10-05T09:15:47.350Z,24.31
2016-10-05T09:16:47.302Z,24.08
2016-10-05T09:17:46.979Z,23.91
2016-10-05T09:18:47.256Z,23.78
2016-10-05T09:19:47.226Z,23.66
2016-10-05T09:20:47.206Z,23.68
2016-10-05T09:21:47.181Z,23.78
2016-10-05T09:22:46.856Z,23.73
2016-10-05T09:23:47.129Z,23.4
2016-10-05T09:24:46.796Z,22.97
2016-10-05T09:25:47.080Z,22.55
2016-10-05T09:26:47.050Z,22.14
2016-10-05T09:27:47.030Z,22.15
2016-10-05T09:28:46.996Z,21.88
2016-10-05T09:29:46.976Z,21.69
2016-10-05T09:30:46.648Z,21.88
2016-10-05T09:31:46.914Z,21.92
2016-10-05T09:32:46.895Z,21.91
2016-10-05T09:33:46.862Z,22.02
2016-10-05T09:34:46.842Z,21.82
2016-10-05T09:35:46.512Z,21.19
2016-10-05T09:36:46.484Z,21.19
2016-10-05T09:37:46.463Z,21.46
2016-10-05T09:38:46.740Z,21.68
2016-10-05T09:39:46.411Z,21.83
2016-10-05T09:40:46.382Z,21.91
2016-10-05T09:41:46.659Z,21.94
2016-10-05T09:42:46.330Z,21.83
2016-10-05T09:43:46.308Z,21.69
2016-10-05T09:44:46.277Z,22.06
2016-10-05T09:45:46.251Z,22.57
2016-10-05T09:46:46.524Z,22.9
2016-10-05T09:47:46.198Z,23.16
2016-10-05T09:48:46.173Z,23.47
2016-10-05T09:49:46.147Z,23.76
2016-10-05T09:50:46.426Z,23.79
2016-10-05T09:51:46.413Z,23.78
2016-10-05T09:52:46.384Z,23.57
2016-10-05T09:53:46.349Z,23.75
2016-10-05T09:54:46.321Z,24.03
2016-10-05T09:55:46.306Z,24.27
2016-10-05T09:56:46.277Z,24.32
2016-10-05T09:57:45.959Z,24.43
2016-10-05T09:58:45.939Z,24.32
2016-10-05T09:59:46.196Z,24.15
2016-10-05T10:00:46.172Z,24.05
2016-10-05T10:01:46.148Z,24.02
2016-10-05T10:02:46.128Z,23.87
2016-10-05T10:03:46.102Z,23.69
2016-10-05T10:04:46.071Z,23.27
2016-10-05T10:05:46.050Z,23.02
2016-10-05T10:06:45.417Z,23.12
2016-10-05T10:07:45.714Z,23.17
2016-10-05T10:08:45.977Z,23.35
2016-10-05T10:09:45.945Z,23.39
2016-10-05T10:10:45.923Z,23.27
2016-10-05T10:11:45.895Z,23.04
2016-10-05T10:12:45.873Z,23
2016-10-05T10:13:45.243Z,22.62
2016-10-05T10:14:45.551Z,22.58
2016-10-05T10:15:45.497Z,22.64
2016-10-05T10:16:45.168Z,22.61
2016-10-05T10:17:45.746Z,22.62
2016-10-05T10:18:45.721Z,22.85
2016-10-05T10:19:45.696Z,22.68
2016-10-05T10:20:45.673Z,22.58
2016-10-05T10:21:45.645Z,22.27
2016-10-05T10:22:45.319Z,22.28
2016-10-05T10:23:45.594Z,22.37
2016-10-05T10:24:45.263Z,22.8
2016-10-05T10:25:45.550Z,22.88
2016-10-05T10:26:45.525Z,22.8
2016-10-05T10:27:45.492Z,22.6
2016-10-05T10:28:45.172Z,22.18
2016-10-05T10:29:45.434Z,22.28
2016-10-05T10:30:45.113Z,22.75
2016-10-05T10:31:45.390Z,22.86
2016-10-05T10:32:45.360Z,22.8
2016-10-05T10:33:45.035Z,22.86
2016-10-05T10:34:45.010Z,22.86
2016-10-05T10:35:44.983Z,22.85
2016-10-05T10:36:44.956Z,22.54
2016-10-05T10:37:45.234Z,22.39
2016-10-05T10:38:45.220Z,22.22
2016-10-05T10:39:45.199Z,21.62
2016-10-05T10:40:45.169Z,21.16
2016-10-05T10:41:45.132Z,21.14
2016-10-05T10:42:45.110Z,20.95
2016-10-05T10:43:45.075Z,20.54
2016-10-05T10:44:45.056Z,20.14
2016-10-05T10:45:45.038Z,19.91
2016-10-05T10:46:45.000Z,19.56
2016-10-05T10:47:44.977Z,19.16
2016-10-05T10:48:44.950Z,19.19
2016-10-05T10:49:44.922Z,18.99
2016-10-05T10:50:44.594Z,18.72
2016-10-05T10:51:44.868Z,18.42
2016-10-05T10:52:44.836Z,18.41
2016-10-05T10:53:44.517Z,18.05
2016-10-05T10:54:44.481Z,18.12
2016-10-05T10:55:44.449Z,18.5
2016-10-05T10:56:44.729Z,18.88
2016-10-05T10:57:44.411Z,19.02
2016-10-05T10:58:44.673Z,19.14
2016-10-05T10:59:44.649Z,19.36
2016-10-05T11:00:44.619Z,19.56
2016-10-05T11:01:44.298Z,19.59
2016-10-05T11:02:43.961Z,19.41
2016-10-05T11:03:44.237Z,19.23
2016-10-05T11:04:44.519Z,19.26
2016-10-05T11:05:44.488Z,19.51
2016-10-05T11:06:44.456Z,19.69
2016-10-05T11:07:44.429Z,19.65
2016-10-05T11:08:44.415Z,19.29
2016-10-05T11:09:44.070Z,18.88
2016-10-05T11:10:44.050Z,18.11
2016-10-05T11:11:44.315Z,17.52
2016-10-05T11:12:43.992Z,17.33
2016-10-05T11:13:43.959Z,16.89
2016-10-05T11:14:44.232Z,16.43
2016-10-05T11:15:44.200Z,16.14
2016-10-05T11:16:43.868Z,16.07
2016-10-05T11:17:43.842Z,15.86
2016-10-05T11:18:44.112Z,15.82
2016-10-05T11:19:44.081Z,15.54
2016-10-05T11:20:44.068Z,15.16
2016-10-05T11:21:44.020Z,14.88
2016-10-05T11:22:43.995Z,14.88
2016-10-05T11:23:43.960Z,14.77
2016-10-05T11:24:43.941Z,14.69
2016-10-05T11:25:43.900Z,14.68
2016-10-05T11:26:43.866Z,14.5
2016-10-05T11:27:43.838Z,14.32
2016-10-05T11:28:43.801Z,14.18
2016-10-05T11:29:43.773Z,13.95
2016-10-05T11:30:43.742Z,13.78
2016-10-05T11:31:43.705Z,13.64
2016-10-05T11:32:43.374Z,13.48
2016-10-05T11:33:43.641Z,13.39
2016-10-05T11:34:43.008Z,13.25
2016-10-05T11:35:43.277Z,13.19
2016-10-05T11:36:43.544Z,13.07
2016-10-05T11:37:43.518Z,13.07
2016-10-05T11:38:43.479Z,13.03
2016-10-05T11:39:43.447Z,12.85
2016-10-05T11:40:43.414Z,12.74
2016-10-05T11:41:43.076Z,12.64
2016-10-05T11:42:43.051Z,12.53
2016-10-05T11:43:43.010Z,12.37
2016-10-05T11:44:42.980Z,12.34
2016-10-05T11:45:43.244Z,12.16
2016-10-05T11:46:42.912Z,12.16
2016-10-05T11:47:43.179Z,12.12
2016-10-05T11:48:43.147Z,12.13
2016-10-05T11:49:43.109Z,12.19
2016-10-05T11:50:43.085Z,12.2
2016-10-05T11:51:43.041Z,12.07
2016-10-05T11:52:42.705Z,12.01
2016-10-05T11:53:42.973Z,11.9
2016-10-05T11:54:42.633Z,11.95
2016-10-05T11:55:42.906Z,11.86
2016-10-05T11:56:42.868Z,11.78
2016-10-05T11:57:42.830Z,11.85
2016-10-05T11:58:42.498Z,11.8
2016-10-05T11:59:42.767Z,11.83
2016-10-05T12:00:42.725Z,11.79
2016-10-05T12:01:42.390Z,11.9
2016-10-05T12:02:42.659Z,11.9
2016-10-05T12:03:42.317Z,11.91
2016-10-05T12:04:42.587Z,11.91
2016-10-05T12:05:42.569Z,11.86
2016-10-05T12:06:42.517Z,11.86
2016-10-05T12:07:42.181Z,12.02
2016-10-05T12:08:42.443Z,12.04
2016-10-05T12:09:42.410Z,11.98
2016-10-05T12:10:42.069Z,12.01
2016-10-05T12:11:41.733Z,11.94
2016-10-05T12:12:42.008Z,12.01
2016-10-05T12:13:42.281Z,12.01
2016-10-05T12:14:41.933Z,12.02
2016-10-05T12:15:41.597Z,12.04
2016-10-05T12:16:42.187Z,11.91
2016-10-05T12:17:41.827Z,11.91
2016-10-05T12:18:41.794Z,11.9
2016-10-05T12:19:41.753Z,11.9
2016-10-05T12:20:42.026Z,11.8
2016-10-05T12:21:41.987Z,11.76
2016-10-05T12:22:41.955Z,11.85
2016-10-05T12:23:41.916Z,11.78
2016-10-05T12:24:41.586Z,11.73
2016-10-05T12:25:41.844Z,11.76
2016-10-05T12:26:41.809Z,11.61
2016-10-05T12:27:41.771Z,11.55
2016-10-05T12:28:41.749Z,11.61
2016-10-05T12:29:41.702Z,11.61
2016-10-05T12:30:41.361Z,11.62
2016-10-05T12:31:41.631Z,11.58
2016-10-05T12:32:41.344Z,11.51
2016-10-05T12:33:41.258Z,11.55
2016-10-05T12:34:41.527Z,11.46
2016-10-05T12:35:41.494Z,11.46
2016-10-05T12:36:41.148Z,11.47
2016-10-05T12:37:41.117Z,11.47
2016-10-05T12:38:41.081Z,11.61
2016-10-05T12:39:41.049Z,11.57
2016-10-05T12:40:41.312Z,11.58
2016-10-05T12:41:40.977Z,11.52
2016-10-05T12:42:41.241Z,11.57
2016-10-05T12:43:40.903Z,11.49
2016-10-05T12:44:41.169Z,11.49
2016-10-05T12:45:40.831Z,11.54
2016-10-05T12:46:40.803Z,11.46
2016-10-05T12:47:40.767Z,11.54
2016-10-05T12:48:41.029Z,11.58
2016-10-05T12:49:40.988Z,11.65
2016-10-05T12:50:40.952Z,11.72
2016-10-05T12:51:40.915Z,11.8
2016-10-05T12:52:40.579Z,11.79
2016-10-05T12:53:40.545Z,11.86
2016-10-05T12:54:40.209Z,11.83
2016-10-05T12:55:40.473Z,11.95
2016-10-05T12:56:40.436Z,11.99
2016-10-05T12:57:40.709Z,11.91
2016-10-05T12:58:40.667Z,11.95
2016-10-05T12:59:40.633Z,11.83
2016-10-05T13:00:40.594Z,11.91
2016-10-05T13:01:40.257Z,11.82
2016-10-05T13:02:40.525Z,11.8
2016-10-05T13:03:39.891Z,11.8
2016-10-05T13:04:40.148Z,11.8
2016-10-05T13:05:40.427Z,11.8
2016-10-05T13:06:40.382Z,11.83
2016-10-05T13:07:40.347Z,11.79
2016-10-05T13:08:40.318Z,11.69
2016-10-05T13:09:39.977Z,11.78
2016-10-05T13:10:40.244Z,11.78